Riverdale, NE (68870)

8:01 PM CDT on July 29, 2014 (GMT -0500)
Regency (KNEKEARN3) Elev 2224 ft | 40.72 °N, 99.08 °W | Change Station

Current weather conditions updated 5 seconds ago

Clear
Clear
71.3 °F
Feels Like 74 °F
N
3.3
Wind Variable Wind from SE
Gusts 4.6 mph

Tomorrow is forecast to be nearly the same temperature as today.

Today
High -- | Low -- °F
--% Chance of Precip.
Yesterday
High -- | Low -- °F
Precip. -- in
6:30 AM 8:55 PM
Waxing Crescent, 8% visible
Pressure 30.15 in
Visibility 10.0 miles
Clouds Clear
Heat Index 74 °F
Dew Point 61 °F
Humidity 69%
Rainfall 0.00 in
Snow Depth Not available.
UV 0 out of 12
Pollen 7.10 out of 12
Air Quality Not available.
Flu Activity Not available.
METAR KEAR 300055Z AUTO 10006KT 10SM CLR 23/15 A3015 RMK AO1

More Conditions Fewer Conditions

Pressure 30.15 in
Visibility 10.0 miles
Clouds Clear
Heat Index 74 °F
Dew Point 61 °F
Humidity 69%
Rainfall 0.00 in
Snow Depth Not available.
UV 0 out of 12
Pollen 7.10 out of 12
Air Quality Not available.
Flu Activity Not available.
METAR KEAR 300055Z AUTO 10006KT 10SM CLR 23/15 A3015 RMK AO1

More Conditions Fewer Conditions

10-Day Weather Forecast

Almanac

Astronomy

Jul. 29, 2014 Rise Set
Actual Time 6:30 AM CDT 8:55 PM CDT
Civil Twilight 5:59 AM CDT 9:26 PM CDT
Nautical Twilight 5:20 AM CDT 10:04 PM CDT
Astronomical Twilight 4:37 AM CDT 10:47 PM CDT
Moon 9:09 AM CDT (7/29) 10:07 PM CDT (7/29)
Length of Visible Light 15h 27m
Length of Day
14h 24m
Tomorrow will be 1m 59s shorter.
Waxing Crescent, 8% of the Moon is Illuminated
Today
Waxing Crescent
Aug 3
First Quarter
Aug 10
Full
Aug 17
Last Quarter
Aug 25
New

Today's Extremes

State Highs State Lows

Community

WunderPhotos

Upload Photos

1,738,939 photos uploaded!

Nearby

Snow Depth

Station Depth Elevation
No new snow has been reported.

Earthquake Activity

City Distance Mag. Time & Date
No recent earthquake activity has been reported nearby.
Minimum magnitude displayed is 2.5.

Coastal Water Temperatures

Place Temperature
No Stations Reporting

Nearby Weather Stations

Station Location Temp. Heat Index Dew Point Humidity Wind Precip. Elev Updated Type
Regency, Kearney, NE 71.3 °F 74 °F 61 °F 69% SE  at  3.3 mph 0.00 in / hr 2224 ft 8:01 PM CDT Rapid Fire
SW Kearney, Kearney, NE 74.1 °F 77 °F 61 °F 64% ENE  at  2.0 mph 0.00 in / hr 2159 ft 8:01 PM CDT Rapid Fire
Target Hill, Kearney, NE 87.3 °F 89 °F 65 °F 47% ESE  at  5.7 mph 0.00 in / hr 2130 ft 4:09 PM CDT Rapid Fire
Kuehn International Airport, Heartwell, NE 73.5 °F 77 °F 59 °F 60% NE  at  10.0 mph 0.00 in / hr 2083 ft 7:56 PM CDT Normal

Show More Stations Show Fewer Stations